Search for airport 
image banner adimage banner adimage banner ad
image banner ad

0PS6 - Herbst

Located in East Prospect, United States

ICAO - 0PS6, IATA -

Data provided by Airmate  

General information

Coordinates: N39°56'58" W76°33'12"
Elevation is 485 feet MSL.
Magnetic variation is -10° East
View others Airports in Pennsylvania

Operational data

Special qualification required
Current time UTC:
Current local time:
Weather at : KTHV - York ( 27 km )
METAR: KTHV 071153Z AUTO 09003KT 10SM -RA SCT065 OVC080 09/05 A2992 RMK AO2 RAB1055E10B46 SLP132 P0000 60000 T00940050 10094 20039 53002
View NOTAMs / SUP AIP / TFR affecting this airport [VIEW]
Communications frequencies: [VIEW]

Runways:

Airport contact information

Address: East Prospect United States

Satellite view of 0PS6